createdAt,value
2018-11-10T00:00:12.589Z,99.90
2018-11-10T00:02:41.370Z,99.90
2018-11-10T00:05:10.246Z,99.90
2018-11-10T00:07:39.068Z,99.90
2018-11-10T00:10:22.853Z,99.90
2018-11-10T00:12:51.730Z,99.90
2018-11-10T00:15:20.628Z,99.90
2018-11-10T00:17:49.577Z,99.90
2018-11-10T00:20:18.446Z,99.90
2018-11-10T00:22:47.975Z,99.90
2018-11-10T00:25:16.767Z,99.90
2018-11-10T00:27:46.147Z,99.90
2018-11-10T00:30:16.153Z,99.90
2018-11-10T00:32:45.332Z,99.90
2018-11-10T00:35:14.159Z,99.90
2018-11-10T00:37:43.184Z,99.90
2018-11-10T00:40:13.642Z,99.90
2018-11-10T00:42:42.840Z,99.90
2018-11-10T00:45:11.715Z,99.90
2018-11-10T00:47:40.552Z,99.90
2018-11-10T00:50:09.800Z,99.90
2018-11-10T00:52:38.732Z,99.90
2018-11-10T00:55:08.045Z,99.90
2018-11-10T00:57:36.798Z,99.90
2018-11-10T01:00:07.441Z,99.90
2018-11-10T01:02:36.303Z,99.90
2018-11-10T01:05:05.677Z,99.90
2018-11-10T01:07:34.477Z,99.90
2018-11-10T01:10:03.299Z,99.90
2018-11-10T01:12:31.995Z,99.90
2018-11-10T01:15:00.804Z,99.90
2018-11-10T01:17:29.547Z,99.90
2018-11-10T01:19:58.355Z,99.90
2018-11-10T01:22:27.075Z,99.90
2018-11-10T01:24:55.848Z,99.90
2018-11-10T01:27:24.620Z,99.90
2018-11-10T01:29:53.389Z,99.90
2018-11-10T01:32:22.149Z,99.90
2018-11-10T01:34:50.855Z,99.90
2018-11-10T01:37:19.626Z,99.90
2018-11-10T01:39:48.411Z,99.90
2018-11-10T01:42:17.265Z,99.90
2018-11-10T01:44:46.066Z,99.90
2018-11-10T01:47:14.821Z,99.90
2018-11-10T01:49:43.596Z,99.90
2018-11-10T01:52:12.318Z,99.90
2018-11-10T01:54:43.087Z,99.90
2018-11-10T01:57:11.850Z,99.90
2018-11-10T01:59:40.569Z,99.90
2018-11-10T02:02:09.298Z,99.90
2018-11-10T02:04:38.045Z,99.90
2018-11-10T02:07:06.878Z,99.90
2018-11-10T02:09:35.652Z,99.90
2018-11-10T02:12:04.455Z,99.90
2018-11-10T02:14:33.258Z,99.90
2018-11-10T02:17:02.196Z,99.90
2018-11-10T02:19:31.235Z,99.90
2018-11-10T02:22:00.053Z,99.90
2018-11-10T02:24:29.033Z,99.90
2018-11-10T02:26:58.073Z,99.90
2018-11-10T02:29:27.968Z,99.90
2018-11-10T02:31:56.704Z,99.90
2018-11-10T02:34:25.395Z,99.90
2018-11-10T02:36:54.185Z,99.90
2018-11-10T02:39:22.920Z,99.90
2018-11-10T02:41:51.661Z,99.90
2018-11-10T02:44:20.448Z,99.90
2018-11-10T02:46:49.197Z,99.90
2018-11-10T02:49:17.985Z,99.90
2018-11-10T02:51:46.796Z,99.90
2018-11-10T02:54:15.520Z,99.90
2018-11-10T02:56:44.251Z,99.90
2018-11-10T02:59:13.020Z,99.90
2018-11-10T03:01:41.746Z,99.90
2018-11-10T03:04:10.483Z,99.90
2018-11-10T03:06:39.250Z,99.90
2018-11-10T03:09:08.678Z,99.90
2018-11-10T03:11:37.853Z,99.90
2018-11-10T03:14:06.750Z,99.90
2018-11-10T03:16:35.672Z,99.90
2018-11-10T03:19:04.543Z,99.90
2018-11-10T03:21:33.477Z,99.90
2018-11-10T03:24:02.288Z,99.90
2018-11-10T03:26:31.128Z,99.90
2018-11-10T03:28:59.890Z,99.90
2018-11-10T03:31:28.649Z,99.90
2018-11-10T03:33:57.398Z,99.90
2018-11-10T03:36:26.155Z,99.90
2018-11-10T03:38:54.880Z,99.90
2018-11-10T03:41:23.667Z,99.90
2018-11-10T03:43:52.385Z,99.90
2018-11-10T03:46:21.341Z,99.90
2018-11-10T03:48:50.127Z,99.90
2018-11-10T03:51:18.898Z,99.90
2018-11-10T03:53:47.675Z,99.90
2018-11-10T03:56:16.479Z,99.90
2018-11-10T03:58:45.247Z,99.90
2018-11-10T04:01:14.001Z,99.90
2018-11-10T04:03:42.798Z,99.90
2018-11-10T04:06:11.561Z,99.90
2018-11-10T04:08:40.345Z,99.90
2018-11-10T04:11:09.136Z,99.90
2018-11-10T04:13:37.936Z,99.90
2018-11-10T04:16:06.743Z,99.90
2018-11-10T04:18:35.525Z,99.90
2018-11-10T04:21:04.415Z,99.90
2018-11-10T04:23:33.222Z,99.90
2018-11-10T04:26:01.954Z,99.90
2018-11-10T04:28:30.708Z,99.90
2018-11-10T04:31:01.638Z,99.90
2018-11-10T04:33:32.188Z,99.90
2018-11-10T04:36:00.937Z,99.90
2018-11-10T04:38:29.680Z,99.90
2018-11-10T04:40:58.442Z,99.90
2018-11-10T04:43:27.255Z,99.90
2018-11-10T04:45:56.035Z,99.90
2018-11-10T04:48:24.833Z,99.90
2018-11-10T04:50:53.935Z,99.90
2018-11-10T04:53:22.808Z,99.90
2018-11-10T04:55:51.585Z,99.90
2018-11-10T04:58:20.380Z,99.90
2018-11-10T05:00:49.128Z,99.90
2018-11-10T05:03:17.885Z,99.90
2018-11-10T05:05:46.628Z,99.90
2018-11-10T05:08:15.385Z,99.90
2018-11-10T05:10:44.120Z,99.90
2018-11-10T05:13:12.900Z,99.90
2018-11-10T05:15:41.765Z,99.90
2018-11-10T05:18:10.539Z,99.90
2018-11-10T05:20:39.342Z,99.90
2018-11-10T05:23:08.177Z,99.90
2018-11-10T05:25:36.955Z,99.90
2018-11-10T05:28:06.323Z,99.90
2018-11-10T05:30:35.035Z,99.90
2018-11-10T05:33:03.878Z,99.90
2018-11-10T05:35:32.657Z,99.90
2018-11-10T05:38:01.446Z,99.90
2018-11-10T05:40:30.352Z,99.90
2018-11-10T05:42:59.180Z,99.90
2018-11-10T05:45:28.065Z,99.90
2018-11-10T05:47:56.813Z,99.90
2018-11-10T05:50:25.593Z,99.90
2018-11-10T05:52:54.383Z,99.90
2018-11-10T05:55:23.147Z,99.90
2018-11-10T05:57:51.998Z,99.90
2018-11-10T06:00:20.841Z,99.90
2018-11-10T06:02:49.952Z,99.90
2018-11-10T06:05:18.771Z,99.90
2018-11-10T06:07:47.735Z,99.90
2018-11-10T06:10:16.593Z,99.90
2018-11-10T06:12:45.310Z,99.90
2018-11-10T06:15:14.130Z,99.90
2018-11-10T06:17:42.907Z,99.90
2018-11-10T06:20:12.575Z,99.90
2018-11-10T06:22:41.490Z,99.90
2018-11-10T06:25:10.760Z,99.90
2018-11-10T06:27:40.420Z,99.90
2018-11-10T06:30:10.705Z,99.90
2018-11-10T06:32:46.873Z,99.90
2018-11-10T06:35:16.263Z,99.90
2018-11-10T06:37:45.098Z,99.90
2018-11-10T06:40:14.242Z,99.90
2018-11-10T06:42:43.801Z,99.90
2018-11-10T06:45:12.613Z,99.90
2018-11-10T06:47:41.425Z,99.90
2018-11-10T06:50:10.928Z,99.90
2018-11-10T06:52:39.784Z,99.90
2018-11-10T06:55:09.958Z,99.90
2018-11-10T06:57:38.930Z,99.90
2018-11-10T07:00:11.173Z,99.90
2018-11-10T07:02:40.496Z,99.90
2018-11-10T07:05:09.901Z,99.90
2018-11-10T07:07:39.095Z,99.90
2018-11-10T07:10:08.573Z,99.90
2018-11-10T07:12:37.345Z,99.90
2018-11-10T07:15:07.570Z,99.90
2018-11-10T07:17:36.459Z,99.90
2018-11-10T07:20:06.095Z,99.90
2018-11-10T07:22:34.918Z,99.90
2018-11-10T07:25:04.469Z,99.90
2018-11-10T07:27:33.284Z,99.90
2018-11-10T07:30:02.118Z,99.90
2018-11-10T07:32:30.855Z,99.90
2018-11-10T07:34:59.673Z,99.90
2018-11-10T07:37:28.633Z,99.90
2018-11-10T07:39:57.330Z,99.90
2018-11-10T07:42:26.180Z,99.90
2018-11-10T07:44:54.973Z,99.90
2018-11-10T07:47:23.807Z,99.90
2018-11-10T07:49:52.670Z,99.90
2018-11-10T07:52:21.585Z,99.90
2018-11-10T07:54:50.395Z,99.90
2018-11-10T07:57:19.130Z,99.90
2018-11-10T07:59:47.937Z,99.90
2018-11-10T08:02:16.795Z,99.90
2018-11-10T08:04:45.593Z,99.90
2018-11-10T08:07:14.407Z,99.90
2018-11-10T08:09:43.196Z,99.90
2018-11-10T08:12:11.958Z,99.90
2018-11-10T08:14:40.758Z,99.90
2018-11-10T08:17:09.528Z,99.90
2018-11-10T08:19:38.277Z,99.90
2018-11-10T08:22:07.018Z,99.90
2018-11-10T08:24:35.721Z,99.90
2018-11-10T08:27:04.943Z,99.90
2018-11-10T08:29:33.719Z,99.90
2018-11-10T08:32:02.544Z,99.90
2018-11-10T08:34:31.335Z,99.90
2018-11-10T08:37:00.135Z,99.90
2018-11-10T08:39:28.900Z,99.90
2018-11-10T08:41:57.681Z,99.90
2018-11-10T08:44:26.440Z,99.90
2018-11-10T08:46:56.068Z,99.90
2018-11-10T08:49:24.802Z,99.90
2018-11-10T08:51:53.617Z,99.90
2018-11-10T08:54:22.386Z,99.90
2018-11-10T08:56:51.168Z,99.90
2018-11-10T08:59:20.048Z,99.90
2018-11-10T09:01:48.819Z,99.90
2018-11-10T09:04:17.628Z,99.80
2018-11-10T09:06:47.117Z,99.90
2018-11-10T09:09:15.957Z,99.70
2018-11-10T09:11:44.786Z,99.70
2018-11-10T09:14:13.596Z,99.10
2018-11-10T09:16:42.367Z,98.10
2018-11-10T09:19:11.135Z,98.10
2018-11-10T09:21:39.981Z,98.30
2018-11-10T09:24:08.719Z,97.40
2018-11-10T09:26:37.446Z,97.50
2018-11-10T09:29:06.955Z,97.60
2018-11-10T09:31:35.669Z,96.80
2018-11-10T09:34:04.663Z,96.50
2018-11-10T09:36:33.584Z,95.80
2018-11-10T09:39:02.396Z,95.90
2018-11-10T09:41:31.276Z,95.60
2018-11-10T09:44:00.046Z,94.80
2018-11-10T09:46:28.788Z,94.30
2018-11-10T09:48:57.590Z,94.80
2018-11-10T09:51:26.738Z,93.60
2018-11-10T09:53:55.560Z,92.30
2018-11-10T09:56:24.317Z,91.40
2018-11-10T09:58:53.096Z,92.10
2018-11-10T10:01:22.061Z,91.80
2018-11-10T10:03:50.817Z,91.50
2018-11-10T10:06:19.709Z,90.50
2018-11-10T10:08:48.505Z,91.00
2018-11-10T10:11:17.330Z,91.20
2018-11-10T10:13:46.106Z,90.20
2018-11-10T10:16:15.085Z,89.80
2018-11-10T10:18:43.705Z,89.00
2018-11-10T10:21:12.480Z,90.70
2018-11-10T10:23:41.266Z,89.80
2018-11-10T10:26:10.028Z,88.10
2018-11-10T10:28:38.773Z,85.50
2018-11-10T10:31:07.533Z,86.50
2018-11-10T10:33:36.530Z,85.40
2018-11-10T10:36:05.488Z,81.80
2018-11-10T10:38:34.283Z,77.40
2018-11-10T10:41:03.062Z,75.00
2018-11-10T10:43:31.832Z,72.60
2018-11-10T10:46:00.583Z,69.60
2018-11-10T10:48:29.392Z,70.30
2018-11-10T10:50:58.117Z,68.40
2018-11-10T10:53:26.853Z,67.90
2018-11-10T10:55:55.625Z,66.70
2018-11-10T10:58:25.130Z,65.90
2018-11-10T11:00:59.440Z,63.40
2018-11-10T11:03:33.983Z,62.90
2018-11-10T11:06:02.883Z,62.70
2018-11-10T11:08:31.647Z,62.00
2018-11-10T11:11:00.430Z,61.30
2018-11-10T11:13:29.188Z,60.20
2018-11-10T11:15:58.065Z,59.70
2018-11-10T11:18:26.957Z,59.50
2018-11-10T11:20:55.818Z,60.10
2018-11-10T11:23:24.634Z,59.70
2018-11-10T11:25:53.430Z,57.40
2018-11-10T11:28:22.802Z,58.70
2018-11-10T11:30:51.550Z,56.40
2018-11-10T11:33:20.277Z,55.70
2018-11-10T11:35:49.398Z,56.50
2018-11-10T11:38:18.165Z,55.40
2018-11-10T11:40:47.329Z,55.70
2018-11-10T11:43:16.108Z,54.60
2018-11-10T11:45:45.480Z,53.50
2018-11-10T11:48:14.274Z,51.50
2018-11-10T11:50:43.093Z,52.80
2018-11-10T11:53:11.981Z,51.90
2018-11-10T11:55:41.058Z,51.90
2018-11-10T11:58:10.014Z,50.30
2018-11-10T12:00:38.605Z,48.00
2018-11-10T12:03:08.405Z,45.40
2018-11-10T12:05:37.208Z,46.10
2018-11-10T12:08:05.973Z,45.40
2018-11-10T12:10:34.808Z,43.20
2018-11-10T12:13:03.669Z,43.30
2018-11-10T12:15:32.441Z,45.10
2018-11-10T12:18:01.304Z,42.50
2018-11-10T12:20:30.975Z,41.30
2018-11-10T12:22:59.858Z,44.20
2018-11-10T12:25:28.707Z,40.10
2018-11-10T12:27:57.473Z,39.10
2018-11-10T12:30:26.202Z,40.00
2018-11-10T12:32:54.905Z,40.20
2018-11-10T12:35:23.607Z,40.30
2018-11-10T12:37:52.334Z,39.10
2018-11-10T12:40:21.153Z,35.20
2018-11-10T12:42:49.963Z,32.70
2018-11-10T12:45:18.740Z,33.50
2018-11-10T12:47:47.475Z,33.00
2018-11-10T12:50:16.235Z,35.10
2018-11-10T12:52:45.400Z,35.90
2018-11-10T12:55:15.047Z,34.20
2018-11-10T12:57:44.535Z,32.20
2018-11-10T13:00:14.668Z,30.70
2018-11-10T13:02:43.736Z,29.50
2018-11-10T13:05:12.913Z,30.20
2018-11-10T13:07:43.364Z,30.00
2018-11-10T13:10:12.188Z,29.60
2018-11-10T13:12:41.701Z,30.20
2018-11-10T13:15:10.521Z,30.80
2018-11-10T13:17:39.625Z,31.30
2018-11-10T13:20:11.763Z,31.00
2018-11-10T13:22:40.556Z,32.40
2018-11-10T13:25:10.319Z,31.40
2018-11-10T13:27:39.172Z,31.30
2018-11-10T13:30:10.593Z,32.90
2018-11-10T13:32:39.435Z,32.30
2018-11-10T13:35:09.078Z,31.90
2018-11-10T13:37:37.943Z,30.20
2018-11-10T13:40:07.756Z,29.50
2018-11-10T13:42:36.528Z,29.80
2018-11-10T13:45:07.538Z,30.00
2018-11-10T13:47:36.254Z,27.90
2018-11-10T13:50:07.460Z,29.50
2018-11-10T13:52:36.798Z,29.40
2018-11-10T13:55:05.657Z,29.30
2018-11-10T13:57:34.525Z,29.00
2018-11-10T14:00:06.668Z,29.60
2018-11-10T14:02:35.512Z,29.00
2018-11-10T14:05:04.456Z,29.60
2018-11-10T14:07:33.255Z,29.80
2018-11-10T14:10:02.076Z,28.90
2018-11-10T14:12:30.917Z,30.60
2018-11-10T14:14:59.733Z,32.40
2018-11-10T14:17:28.556Z,34.70
2018-11-10T14:19:57.296Z,36.20
2018-11-10T14:22:26.197Z,37.20
2018-11-10T14:24:54.975Z,38.60
2018-11-10T14:27:23.750Z,40.80
2018-11-10T14:29:52.552Z,42.60
2018-11-10T14:32:21.385Z,44.10
2018-11-10T14:34:50.225Z,46.10
2018-11-10T14:37:19.047Z,47.60
2018-11-10T14:39:47.932Z,49.20
2018-11-10T14:42:16.747Z,50.80
2018-11-10T14:44:45.598Z,52.40
2018-11-10T14:47:15.454Z,51.90
2018-11-10T14:49:44.215Z,52.00
2018-11-10T14:52:13.090Z,54.30
2018-11-10T14:54:41.880Z,57.10
2018-11-10T14:57:10.703Z,59.00
2018-11-10T14:59:39.520Z,60.50
2018-11-10T15:02:08.300Z,60.90
2018-11-10T15:04:37.068Z,61.50
2018-11-10T15:07:06.145Z,61.70
2018-11-10T15:09:34.945Z,62.10
2018-11-10T15:12:03.777Z,62.50
2018-11-10T15:14:33.505Z,63.30
2018-11-10T15:17:02.195Z,63.60
2018-11-10T15:19:30.990Z,63.30
2018-11-10T15:21:59.717Z,64.20
2018-11-10T15:24:28.424Z,64.40
2018-11-10T15:26:57.122Z,65.50
2018-11-10T15:29:25.890Z,65.10
2018-11-10T15:31:54.713Z,65.50
2018-11-10T15:34:23.475Z,66.60
2018-11-10T15:36:52.442Z,67.70
2018-11-10T15:39:21.175Z,67.70
2018-11-10T15:41:50.788Z,67.60
2018-11-10T15:44:20.640Z,68.00
2018-11-10T15:46:49.400Z,68.40
2018-11-10T15:49:18.233Z,68.70
2018-11-10T15:51:46.985Z,68.70
2018-11-10T15:54:15.823Z,67.00
2018-11-10T15:56:44.650Z,68.00
2018-11-10T15:59:13.415Z,66.60
2018-11-10T16:01:42.200Z,65.50
2018-11-10T16:04:10.960Z,66.60
2018-11-10T16:06:39.668Z,67.90
2018-11-10T16:09:11.220Z,69.00
2018-11-10T16:11:40.146Z,70.30
2018-11-10T16:14:09.217Z,70.20
2018-11-10T16:16:38.011Z,72.50
2018-11-10T16:19:06.802Z,76.60
2018-11-10T16:21:35.610Z,78.10
2018-11-10T16:24:04.385Z,79.30
2018-11-10T16:26:33.173Z,80.60
2018-11-10T16:29:01.868Z,82.20
2018-11-10T16:31:30.620Z,82.90
2018-11-10T16:33:59.415Z,84.00
2018-11-10T16:36:28.787Z,84.60
2018-11-10T16:38:57.543Z,85.40
2018-11-10T16:41:26.330Z,86.70
2018-11-10T16:43:55.105Z,87.40
2018-11-10T16:46:24.793Z,88.10
2018-11-10T16:48:53.527Z,88.40
2018-11-10T16:51:23.544Z,89.00
2018-11-10T16:53:52.314Z,89.00
2018-11-10T16:56:21.100Z,89.30
2018-11-10T16:58:50.201Z,89.00
2018-11-10T17:01:19.097Z,89.20
2018-11-10T17:03:47.937Z,89.50
2018-11-10T17:06:16.767Z,90.10
2018-11-10T17:08:45.669Z,90.60
2018-11-10T17:11:14.457Z,90.90
2018-11-10T17:13:43.292Z,91.40
2018-11-10T17:16:12.138Z,91.60
2018-11-10T17:18:40.967Z,92.10
2018-11-10T17:21:09.808Z,93.00
2018-11-10T17:23:38.647Z,93.30
2018-11-10T17:26:07.468Z,93.70
2018-11-10T17:28:36.195Z,93.80
2018-11-10T17:31:05.164Z,93.50
2018-11-10T17:33:33.915Z,93.00
2018-11-10T17:36:02.633Z,92.80
2018-11-10T17:38:32.036Z,92.70
2018-11-10T17:41:00.723Z,92.70
2018-11-10T17:43:29.454Z,92.90
2018-11-10T17:45:58.152Z,93.20
2018-11-10T17:48:26.992Z,93.80
2018-11-10T17:50:55.800Z,94.10
2018-11-10T17:53:24.795Z,94.70
2018-11-10T17:55:53.627Z,95.00
2018-11-10T17:58:22.571Z,95.20
2018-11-10T18:00:51.381Z,95.80
2018-11-10T18:03:20.220Z,95.80
2018-11-10T18:05:49.077Z,95.80
2018-11-10T18:08:17.943Z,96.10
2018-11-10T18:10:46.820Z,95.90
2018-11-10T18:13:15.630Z,96.10
2018-11-10T18:15:44.375Z,96.20
2018-11-10T18:18:13.235Z,96.30
2018-11-10T18:20:42.069Z,96.00
2018-11-10T18:23:11.423Z,96.40
2018-11-10T18:25:40.283Z,96.60
2018-11-10T18:28:10.060Z,97.30
2018-11-10T18:30:38.858Z,97.40
2018-11-10T18:33:08.240Z,97.60
2018-11-10T18:35:38.088Z,97.80
2018-11-10T18:38:06.880Z,98.20
2018-11-10T18:40:35.630Z,98.90
2018-11-10T18:43:04.375Z,98.80
2018-11-10T18:45:33.792Z,98.60
2018-11-10T18:48:03.014Z,98.50
2018-11-10T18:50:31.803Z,98.10
2018-11-10T18:53:00.575Z,98.50
2018-11-10T18:55:29.350Z,98.20
2018-11-10T18:57:58.707Z,98.30
2018-11-10T19:00:28.700Z,98.30
2018-11-10T19:02:58.820Z,98.20
2018-11-10T19:05:27.680Z,98.50
2018-11-10T19:07:56.503Z,98.70
2018-11-10T19:10:25.375Z,98.80
2018-11-10T19:12:54.434Z,99.00
2018-11-10T19:15:23.283Z,99.80
2018-11-10T19:17:52.685Z,99.90
2018-11-10T19:20:21.464Z,99.80
2018-11-10T19:22:50.202Z,99.50
2018-11-10T19:25:18.940Z,99.30
2018-11-10T19:27:47.665Z,99.30
2018-11-10T19:30:17.851Z,99.70
2018-11-10T19:32:47.560Z,99.80
2018-11-10T19:35:17.285Z,99.70
2018-11-10T19:37:46.401Z,99.60
2018-11-10T19:40:15.265Z,99.80
2018-11-10T19:42:45.106Z,99.70
2018-11-10T19:45:14.012Z,99.80
2018-11-10T19:47:44.074Z,99.90
2018-11-10T19:50:13.556Z,99.90
2018-11-10T19:52:42.513Z,99.90
2018-11-10T19:55:13.642Z,99.90
2018-11-10T19:57:42.738Z,99.90
2018-11-10T20:00:15.260Z,99.90
2018-11-10T20:02:44.362Z,99.90
2018-11-10T20:05:13.320Z,99.90
2018-11-10T20:07:42.390Z,99.90
2018-11-10T20:10:12.758Z,99.90
2018-11-10T20:12:42.836Z,99.90
2018-11-10T20:15:13.183Z,99.90
2018-11-10T20:17:43.180Z,99.90
2018-11-10T20:20:13.448Z,99.90
2018-11-10T20:22:42.850Z,99.90
2018-11-10T20:25:13.375Z,99.90
2018-11-10T20:27:42.246Z,99.90
2018-11-10T20:30:14.246Z,99.90
2018-11-10T20:32:43.205Z,99.90
2018-11-10T20:35:12.914Z,99.90
2018-11-10T20:37:42.372Z,99.90
2018-11-10T20:40:12.455Z,99.90
2018-11-10T20:42:41.490Z,99.90
2018-11-10T20:45:20.120Z,99.90
2018-11-10T20:47:50.455Z,99.90
2018-11-10T20:50:20.177Z,99.90
2018-11-10T20:52:49.810Z,99.90
2018-11-10T20:55:19.800Z,99.90
2018-11-10T20:57:49.719Z,99.90
2018-11-10T21:00:20.783Z,99.90
2018-11-10T21:02:49.822Z,99.90
2018-11-10T21:05:20.246Z,99.90
2018-11-10T21:07:49.195Z,99.90
2018-11-10T21:10:19.551Z,99.90
2018-11-10T21:12:49.626Z,99.90
2018-11-10T21:15:19.081Z,99.90
2018-11-10T21:17:50.420Z,99.90
2018-11-10T21:20:19.350Z,99.90
2018-11-10T21:22:48.613Z,99.90
2018-11-10T21:25:18.062Z,99.90
2018-11-10T21:27:47.457Z,99.90
2018-11-10T21:30:17.771Z,99.90
2018-11-10T21:32:48.543Z,99.90
2018-11-10T21:35:17.632Z,99.90
2018-11-10T21:37:46.402Z,99.90
2018-11-10T21:40:19.589Z,99.90
2018-11-10T21:42:48.557Z,99.90
2018-11-10T21:45:17.875Z,99.90
2018-11-10T21:47:47.060Z,99.90
2018-11-10T21:50:18.206Z,99.90
2018-11-10T21:52:47.080Z,99.90
2018-11-10T21:55:17.188Z,99.90
2018-11-10T21:57:46.579Z,99.90
2018-11-10T22:00:17.541Z,99.90
2018-11-10T22:02:46.905Z,99.90
2018-11-10T22:05:15.673Z,99.90
2018-11-10T22:07:44.529Z,99.90
2018-11-10T22:10:15.827Z,99.90
2018-11-10T22:12:45.037Z,99.90
2018-11-10T22:15:15.398Z,99.90
2018-11-10T22:17:44.806Z,99.90
2018-11-10T22:20:16.113Z,99.90
2018-11-10T22:22:44.995Z,99.90
2018-11-10T22:25:14.231Z,99.90
2018-11-10T22:27:44.324Z,99.90
2018-11-10T22:30:14.363Z,99.90
2018-11-10T22:32:43.648Z,99.90
2018-11-10T22:35:12.463Z,99.90
2018-11-10T22:37:41.266Z,99.90
2018-11-10T22:40:12.385Z,99.90
2018-11-10T22:42:42.167Z,99.90
2018-11-10T22:45:12.913Z,99.90
2018-11-10T22:47:42.120Z,99.90
2018-11-10T22:50:13.773Z,99.90
2018-11-10T22:52:43.137Z,99.90
2018-11-10T22:55:11.932Z,99.90
2018-11-10T22:57:40.907Z,99.90
2018-11-10T23:00:16.598Z,99.90
2018-11-10T23:02:47.993Z,99.90
2018-11-10T23:05:17.326Z,99.90
2018-11-10T23:07:46.168Z,99.90
2018-11-10T23:10:15.473Z,99.90
2018-11-10T23:12:45.348Z,99.90
2018-11-10T23:15:14.093Z,99.90
2018-11-10T23:17:42.901Z,99.90
2018-11-10T23:20:12.935Z,99.90
2018-11-10T23:22:41.773Z,99.90
2018-11-10T23:25:13.786Z,99.90
2018-11-10T23:27:42.651Z,99.90
2018-11-10T23:30:16.480Z,99.90
2018-11-10T23:32:45.381Z,99.90
2018-11-10T23:35:14.308Z,99.90
2018-11-10T23:37:44.120Z,99.90
2018-11-10T23:40:14.189Z,99.90
2018-11-10T23:42:43.354Z,99.90
2018-11-10T23:45:13.077Z,99.90
2018-11-10T23:47:41.950Z,99.90
2018-11-10T23:50:12.678Z,99.90
2018-11-10T23:52:41.470Z,99.90
2018-11-10T23:55:11.460Z,99.90
2018-11-10T23:57:40.342Z,99.90
